createdAt,value
2018-06-10T00:00:04.275Z,19.91
2018-06-10T00:01:03.994Z,19.86
2018-06-10T00:02:03.969Z,19.91
2018-06-10T00:03:03.977Z,19.86
2018-06-10T00:04:03.956Z,19.84
2018-06-10T00:05:04.250Z,19.94
2018-06-10T00:06:03.957Z,19.83
2018-06-10T00:07:03.970Z,19.92
2018-06-10T00:08:03.983Z,19.78
2018-06-10T00:09:03.691Z,19.81
2018-06-10T00:10:04.247Z,19.74
2018-06-10T00:11:04.219Z,19.77
2018-06-10T00:12:03.966Z,19.73
2018-06-10T00:13:03.932Z,19.74
2018-06-10T00:14:03.941Z,19.69
2018-06-10T00:15:03.951Z,19.71
2018-06-10T00:16:03.955Z,19.63
2018-06-10T00:17:04.211Z,19.62
2018-06-10T00:18:04.178Z,19.62
2018-06-10T00:19:04.196Z,19.55
2018-06-10T00:20:04.201Z,19.55
2018-06-10T00:21:04.197Z,19.61
2018-06-10T00:22:03.914Z,19.44
2018-06-10T00:23:04.192Z,19.48
2018-06-10T00:24:04.160Z,19.47
2018-06-10T00:25:03.931Z,19.55
2018-06-10T00:26:04.150Z,19.62
2018-06-10T00:27:03.920Z,19.65
2018-06-10T00:28:04.170Z,19.58
2018-06-10T00:29:04.196Z,19.62
2018-06-10T00:30:04.187Z,19.62
2018-06-10T00:31:03.952Z,19.63
2018-06-10T00:32:04.135Z,19.59
2018-06-10T00:33:04.166Z,19.66
2018-06-10T00:34:03.889Z,19.66
2018-06-10T00:35:04.138Z,19.63
2018-06-10T00:36:03.872Z,19.61
2018-06-10T00:37:03.906Z,19.55
2018-06-10T00:38:03.871Z,19.56
2018-06-10T00:39:03.895Z,19.46
2018-06-10T00:40:04.112Z,19.5
2018-06-10T00:41:04.143Z,19.46
2018-06-10T00:42:04.105Z,19.5
2018-06-10T00:43:03.870Z,19.47
2018-06-10T00:44:03.864Z,19.4
2018-06-10T00:45:03.876Z,19.36
2018-06-10T00:46:03.871Z,19.31
2018-06-10T00:47:03.866Z,19.36
2018-06-10T00:48:03.837Z,19.28
2018-06-10T00:49:04.091Z,19.21
2018-06-10T00:50:03.857Z,19.22
2018-06-10T00:51:04.098Z,19.26
2018-06-10T00:52:03.854Z,19.16
2018-06-10T00:53:03.822Z,19.21
2018-06-10T00:54:03.845Z,19.08
2018-06-10T00:55:04.091Z,19.07
2018-06-10T00:56:03.884Z,19.14
2018-06-10T00:57:04.065Z,19.02
2018-06-10T00:58:04.088Z,19.04
2018-06-10T00:59:03.823Z,18.98
2018-06-10T01:00:03.807Z,19
2018-06-10T01:01:03.829Z,18.95
2018-06-10T01:02:04.080Z,18.91
2018-06-10T01:03:03.820Z,18.84
2018-06-10T01:04:03.798Z,18.92
2018-06-10T01:05:03.797Z,18.92
2018-06-10T01:06:03.807Z,18.88
2018-06-10T01:07:03.805Z,18.85
2018-06-10T01:08:04.065Z,18.91
2018-06-10T01:09:03.529Z,18.81
2018-06-10T01:10:03.799Z,18.8
2018-06-10T01:11:04.025Z,18.82
2018-06-10T01:12:03.795Z,18.9
2018-06-10T01:13:03.762Z,18.84
2018-06-10T01:14:04.048Z,18.8
2018-06-10T01:15:03.772Z,18.81
2018-06-10T01:16:04.052Z,18.76
2018-06-10T01:17:03.750Z,18.8
2018-06-10T01:18:04.022Z,18.8
2018-06-10T01:19:03.760Z,18.72
2018-06-10T01:20:04.027Z,18.7
2018-06-10T01:21:04.029Z,18.69
2018-06-10T01:22:03.997Z,18.75
2018-06-10T01:23:03.745Z,18.69
2018-06-10T01:24:03.765Z,18.7
2018-06-10T01:25:04.021Z,18.67
2018-06-10T01:26:03.490Z,18.65
2018-06-10T01:27:03.721Z,18.66
2018-06-10T01:28:03.751Z,18.72
2018-06-10T01:29:03.982Z,18.67
2018-06-10T01:30:03.742Z,18.67
2018-06-10T01:31:03.482Z,18.66
2018-06-10T01:32:03.997Z,18.75
2018-06-10T01:33:03.704Z,18.67
2018-06-10T01:34:03.452Z,18.7
2018-06-10T01:35:03.981Z,18.8
2018-06-10T01:36:03.979Z,18.78
2018-06-10T01:37:03.944Z,18.8
2018-06-10T01:38:03.721Z,18.78
2018-06-10T01:39:03.955Z,18.88
2018-06-10T01:40:03.716Z,18.84
2018-06-10T01:41:03.679Z,18.8
2018-06-10T01:42:03.697Z,18.84
2018-06-10T01:43:03.953Z,18.81
2018-06-10T01:44:03.955Z,18.82
2018-06-10T01:45:03.922Z,18.81
2018-06-10T01:46:03.694Z,18.82
2018-06-10T01:47:03.670Z,18.84
2018-06-10T01:48:03.685Z,18.84
2018-06-10T01:49:03.399Z,18.76
2018-06-10T01:50:03.933Z,18.81
2018-06-10T01:51:03.916Z,18.82
2018-06-10T01:52:03.895Z,18.78
2018-06-10T01:53:03.893Z,18.67
2018-06-10T01:54:03.660Z,18.81
2018-06-10T01:55:03.654Z,18.81
2018-06-10T01:56:03.922Z,18.84
2018-06-10T01:57:03.880Z,18.69
2018-06-10T01:58:03.908Z,18.73
2018-06-10T01:59:03.881Z,18.8
2018-06-10T02:00:03.912Z,18.82
2018-06-10T02:01:03.870Z,18.7
2018-06-10T02:02:03.906Z,18.8
2018-06-10T02:03:03.622Z,18.8
2018-06-10T02:04:03.892Z,18.84
2018-06-10T02:05:03.859Z,18.82
2018-06-10T02:06:03.881Z,18.82
2018-06-10T02:07:03.863Z,18.8
2018-06-10T02:08:03.879Z,18.7
2018-06-10T02:09:03.618Z,18.78
2018-06-10T02:10:03.848Z,18.82
2018-06-10T02:11:03.599Z,18.82
2018-06-10T02:12:03.579Z,18.76
2018-06-10T02:13:03.861Z,18.81
2018-06-10T02:14:03.829Z,18.72
2018-06-10T02:15:03.631Z,18.81
2018-06-10T02:16:03.855Z,18.78
2018-06-10T02:17:03.564Z,18.75
2018-06-10T02:18:03.846Z,18.72
2018-06-10T02:19:03.565Z,18.81
2018-06-10T02:20:03.875Z,18.78
2018-06-10T02:21:03.549Z,18.8
2018-06-10T02:22:03.969Z,18.72
2018-06-10T02:23:03.815Z,18.84
2018-06-10T02:24:03.828Z,18.75
2018-06-10T02:25:03.567Z,18.7
2018-06-10T02:26:03.795Z,18.75
2018-06-10T02:27:03.545Z,18.85
2018-06-10T02:28:03.534Z,18.81
2018-06-10T02:29:03.818Z,18.82
2018-06-10T02:30:03.782Z,18.84
2018-06-10T02:31:03.813Z,18.8
2018-06-10T02:32:03.770Z,18.85
2018-06-10T02:33:03.809Z,18.81
2018-06-10T02:34:03.782Z,18.81
2018-06-10T02:35:03.792Z,18.91
2018-06-10T02:36:03.767Z,18.9
2018-06-10T02:37:03.790Z,18.91
2018-06-10T02:38:03.789Z,18.91
2018-06-10T02:39:03.769Z,18.94
2018-06-10T02:40:03.506Z,18.92
2018-06-10T02:41:03.788Z,18.94
2018-06-10T02:42:03.777Z,18.94
2018-06-10T02:43:03.502Z,18.94
2018-06-10T02:44:03.485Z,19.02
2018-06-10T02:45:03.780Z,19.02
2018-06-10T02:46:03.733Z,19.06
2018-06-10T02:47:03.756Z,18.99
2018-06-10T02:48:03.721Z,19.18
2018-06-10T02:49:03.767Z,19.1
2018-06-10T02:50:03.725Z,19.14
2018-06-10T02:51:03.491Z,19.14
2018-06-10T02:52:03.460Z,19.26
2018-06-10T02:53:03.756Z,19.19
2018-06-10T02:54:03.482Z,19.31
2018-06-10T02:55:03.461Z,19.29
2018-06-10T02:56:03.205Z,19.32
2018-06-10T02:57:03.444Z,19.29
2018-06-10T02:58:03.719Z,19.33
2018-06-10T02:59:03.463Z,19.37
2018-06-10T03:00:03.466Z,19.36
2018-06-10T03:01:03.690Z,19.44
2018-06-10T03:02:03.451Z,19.33
2018-06-10T03:03:03.682Z,19.4
2018-06-10T03:04:03.714Z,19.46
2018-06-10T03:05:03.418Z,19.51
2018-06-10T03:06:03.445Z,19.43
2018-06-10T03:07:03.689Z,19.48
2018-06-10T03:08:03.819Z,19.55
2018-06-10T03:09:03.708Z,19.51
2018-06-10T03:10:03.693Z,19.59
2018-06-10T03:11:03.425Z,19.56
2018-06-10T03:12:03.660Z,19.58
2018-06-10T03:13:03.645Z,19.59
2018-06-10T03:14:03.687Z,19.65
2018-06-10T03:15:03.431Z,19.62
2018-06-10T03:16:03.418Z,19.69
2018-06-10T03:17:03.646Z,19.71
2018-06-10T03:18:03.670Z,19.65
2018-06-10T03:19:03.651Z,19.68
2018-06-10T03:20:03.637Z,19.81
2018-06-10T03:21:03.660Z,19.78
2018-06-10T03:22:03.620Z,19.78
2018-06-10T03:23:03.128Z,19.84
2018-06-10T03:24:03.625Z,19.81
2018-06-10T03:25:03.650Z,19.84
2018-06-10T03:26:03.638Z,19.92
2018-06-10T03:27:03.629Z,19.94
2018-06-10T03:28:03.604Z,19.94
2018-06-10T03:29:03.818Z,19.94
2018-06-10T03:30:03.634Z,19.84
2018-06-10T03:31:03.360Z,19.98
2018-06-10T03:32:03.601Z,19.95
2018-06-10T03:33:03.629Z,19.92
2018-06-10T03:34:03.348Z,20.01
2018-06-10T03:35:03.621Z,20.03
2018-06-10T03:36:03.338Z,20.05
2018-06-10T03:37:03.361Z,20.05
2018-06-10T03:38:03.581Z,20.08
2018-06-10T03:39:03.088Z,20.1
2018-06-10T03:40:03.576Z,20.14
2018-06-10T03:41:03.617Z,20.08
2018-06-10T03:42:03.598Z,20.06
2018-06-10T03:43:03.329Z,20.17
2018-06-10T03:44:03.312Z,20.23
2018-06-10T03:45:03.564Z,20.29
2018-06-10T03:46:03.594Z,20.29
2018-06-10T03:47:03.576Z,20.41
2018-06-10T03:48:03.590Z,20.43
2018-06-10T03:49:03.557Z,20.52
2018-06-10T03:50:03.329Z,20.57
2018-06-10T03:51:03.550Z,20.69
2018-06-10T03:52:03.322Z,20.62
2018-06-10T03:53:03.543Z,20.69
2018-06-10T03:54:03.317Z,20.76
2018-06-10T03:55:03.554Z,20.8
2018-06-10T03:56:03.317Z,20.91
2018-06-10T03:57:03.531Z,20.98
2018-06-10T03:58:03.301Z,21.07
2018-06-10T03:59:03.547Z,21.01
2018-06-10T04:00:03.531Z,21.17
2018-06-10T04:01:03.525Z,21.13
2018-06-10T04:02:03.554Z,21.29
2018-06-10T04:03:03.541Z,21.32
2018-06-10T04:04:03.554Z,21.43
2018-06-10T04:05:03.526Z,21.5
2018-06-10T04:06:03.547Z,21.62
2018-06-10T04:07:03.587Z,21.72
2018-06-10T04:08:03.553Z,21.82
2018-06-10T04:09:03.007Z,21.9
2018-06-10T04:10:03.542Z,21.92
2018-06-10T04:11:03.519Z,22.12
2018-06-10T04:12:03.025Z,22.21
2018-06-10T04:13:03.502Z,22.33
2018-06-10T04:14:03.510Z,22.49
2018-06-10T04:15:03.514Z,22.46
2018-06-10T04:16:03.274Z,22.64
2018-06-10T04:17:03.020Z,22.85
2018-06-10T04:18:03.503Z,22.98
2018-06-10T04:19:03.508Z,23.13
2018-06-10T04:20:03.493Z,23.35
2018-06-10T04:21:03.535Z,23.55
2018-06-10T04:22:03.246Z,23.78
2018-06-10T04:23:03.255Z,23.95
2018-06-10T04:24:03.532Z,24.03
2018-06-10T04:25:03.492Z,24.25
2018-06-10T04:26:03.271Z,24.3
2018-06-10T04:27:03.509Z,24.31
2018-06-10T04:28:03.530Z,24.49
2018-06-10T04:29:03.499Z,24.58
2018-06-10T04:30:03.499Z,24.68
2018-06-10T04:31:03.510Z,24.84
2018-06-10T04:32:03.530Z,24.83
2018-06-10T04:33:03.285Z,24.95
2018-06-10T04:34:03.257Z,25.13
2018-06-10T04:35:03.524Z,25.13
2018-06-10T04:36:03.250Z,25.23
2018-06-10T04:37:03.536Z,25.36
2018-06-10T04:38:03.510Z,25.36
2018-06-10T04:39:03.546Z,25.35
2018-06-10T04:40:03.254Z,25.46
2018-06-10T04:41:03.542Z,25.54
2018-06-10T04:42:03.508Z,25.62
2018-06-10T04:43:03.542Z,25.7
2018-06-10T04:44:03.262Z,25.79
2018-06-10T04:45:03.297Z,25.92
2018-06-10T04:46:03.291Z,25.99
2018-06-10T04:47:03.539Z,26.09
2018-06-10T04:48:03.519Z,26.29
2018-06-10T04:49:03.301Z,26.39
2018-06-10T04:50:03.535Z,26.63
2018-06-10T04:51:03.032Z,26.87
2018-06-10T04:52:03.278Z,27.07
2018-06-10T04:53:03.746Z,27.37
2018-06-10T04:54:03.545Z,27.78
2018-06-10T04:55:03.575Z,28.04
2018-06-10T04:56:03.292Z,28.37
2018-06-10T04:57:03.324Z,28.8
2018-06-10T04:58:03.548Z,29.15
2018-06-10T04:59:03.574Z,29.51
2018-06-10T05:00:03.610Z,29.79
2018-06-10T05:01:03.603Z,29.94
2018-06-10T05:02:03.575Z,30.02
2018-06-10T05:03:03.606Z,30.13
2018-06-10T05:04:03.622Z,30.13
2018-06-10T05:05:03.620Z,30.11
2018-06-10T05:06:03.346Z,30.1
2018-06-10T05:07:03.363Z,30.04
2018-06-10T05:08:03.355Z,29.95
2018-06-10T05:09:03.648Z,29.97
2018-06-10T05:10:03.631Z,29.89
2018-06-10T05:11:03.658Z,29.86
2018-06-10T05:12:03.631Z,29.82
2018-06-10T05:13:03.693Z,29.71
2018-06-10T05:14:03.651Z,29.73
2018-06-10T05:15:03.669Z,29.74
2018-06-10T05:16:03.441Z,29.65
2018-06-10T05:17:03.662Z,29.49
2018-06-10T05:18:03.680Z,29.45
2018-06-10T05:19:03.430Z,29.34
2018-06-10T05:20:04.072Z,29.31
2018-06-10T05:21:03.719Z,29.27
2018-06-10T05:22:03.693Z,29.23
2018-06-10T05:23:03.456Z,29.23
2018-06-10T05:24:03.699Z,29.24
2018-06-10T05:25:03.483Z,29.26
2018-06-10T05:26:03.719Z,29.28
2018-06-10T05:27:03.758Z,29.36
2018-06-10T05:28:03.737Z,29.42
2018-06-10T05:29:03.804Z,29.48
2018-06-10T05:30:03.482Z,29.48
2018-06-10T05:31:03.757Z,29.53
2018-06-10T05:32:03.492Z,29.52
2018-06-10T05:33:03.790Z,29.53
2018-06-10T05:34:03.530Z,29.6
2018-06-10T05:35:03.788Z,29.67
2018-06-10T05:36:03.272Z,29.65
2018-06-10T05:37:03.771Z,29.7
2018-06-10T05:38:03.808Z,29.83
2018-06-10T05:39:03.806Z,30.08
2018-06-10T05:40:03.575Z,30.35
2018-06-10T05:41:03.579Z,30.61
2018-06-10T05:42:03.808Z,31.01
2018-06-10T05:43:03.586Z,31.36
2018-06-10T05:44:03.826Z,31.73
2018-06-10T05:45:03.873Z,32.13
2018-06-10T05:46:03.828Z,32.51
2018-06-10T05:47:03.860Z,33.01
2018-06-10T05:48:03.845Z,33.31
2018-06-10T05:49:03.902Z,33.63
2018-06-10T05:50:03.894Z,33.94
2018-06-10T05:51:03.640Z,34.3
2018-06-10T05:53:03.894Z,35.03
2018-06-10T05:54:03.923Z,35.45
2018-06-10T05:55:03.915Z,35.71
2018-06-10T05:56:03.955Z,36.09
2018-06-10T05:57:03.710Z,36.37
2018-06-10T05:58:03.707Z,36.8
2018-06-10T05:59:03.960Z,36.83
2018-06-10T06:00:03.970Z,36.95
2018-06-10T06:01:04.013Z,37.03
2018-06-10T06:02:16.744Z,37.22
2018-06-10T06:03:04.039Z,37.47
2018-06-10T06:04:03.758Z,37.69
2018-06-10T06:06:04.040Z,38.25
2018-06-10T06:07:03.572Z,38.41
2018-06-10T06:08:16.554Z,38.37
2018-06-10T06:09:03.837Z,38.34
2018-06-10T06:10:03.838Z,38.19
2018-06-10T06:11:16.871Z,37.98
2018-06-10T06:12:04.121Z,37.85
2018-06-10T06:13:03.904Z,37.59
2018-06-10T06:14:04.144Z,37.41
2018-06-10T06:15:16.919Z,37.21
2018-06-10T06:16:03.915Z,36.93
2018-06-10T06:17:05.461Z,36.8
2018-06-10T06:18:04.206Z,36.59
2018-06-10T06:19:03.737Z,36.34
2018-06-10T06:20:03.999Z,36.22
2018-06-10T06:21:03.975Z,36.13
2018-06-10T06:22:04.003Z,35.97
2018-06-10T06:23:03.992Z,35.84
2018-06-10T06:24:04.037Z,35.81
2018-06-10T06:25:04.287Z,35.85
2018-06-10T06:26:16.787Z,35.85
2018-06-10T06:27:04.087Z,35.96
2018-06-10T06:28:04.341Z,36.16
2018-06-10T06:29:04.059Z,36.15
2018-06-10T06:30:04.346Z,36.15
2018-06-10T06:31:04.340Z,36.22
2018-06-10T06:32:04.124Z,36.22
2018-06-10T06:33:04.107Z,36.17
2018-06-10T06:34:04.383Z,36.15
2018-06-10T06:35:04.154Z,36.16
2018-06-10T06:36:04.165Z,36
2018-06-10T06:37:04.152Z,36
2018-06-10T06:38:04.427Z,35.92
2018-06-10T06:39:04.175Z,35.94
2018-06-10T06:40:04.212Z,35.82
2018-06-10T06:41:04.449Z,35.85
2018-06-10T06:42:04.234Z,35.96
2018-06-10T06:43:04.503Z,36.2
2018-06-10T06:44:04.514Z,36.43
2018-06-10T06:45:04.492Z,36.71
2018-06-10T06:46:04.275Z,37.05
2018-06-10T06:47:04.018Z,37.47
2018-06-10T06:48:04.306Z,37.76
2018-06-10T06:49:04.570Z,38.25
2018-06-10T06:50:04.574Z,38.56
2018-06-10T06:51:04.064Z,38.9
2018-06-10T06:52:04.582Z,39.13
2018-06-10T06:53:04.373Z,39.32
2018-06-10T06:54:04.630Z,39.32
2018-06-10T06:55:04.660Z,39.23
2018-06-10T06:56:04.639Z,39.16
2018-06-10T06:57:04.428Z,39.09
2018-06-10T06:58:04.786Z,38.83
2018-06-10T06:59:04.175Z,38.74
2018-06-10T07:00:04.469Z,38.54
2018-06-10T07:01:04.707Z,38.44
2018-06-10T07:02:04.744Z,38.2
2018-06-10T07:03:04.244Z,38.04
2018-06-10T07:04:04.793Z,37.93
2018-06-10T07:05:04.532Z,37.74
2018-06-10T07:06:04.533Z,37.66
2018-06-10T07:07:04.788Z,37.5
2018-06-10T07:08:04.796Z,37.5
2018-06-10T07:09:04.841Z,37.31
2018-06-10T07:10:04.600Z,37.15
2018-06-10T07:11:04.608Z,37.02
2018-06-10T07:12:05.064Z,36.88
2018-06-10T07:13:04.629Z,36.85
2018-06-10T07:14:04.617Z,36.72
2018-06-10T07:15:04.914Z,36.51
2018-06-10T07:16:04.890Z,36.44
2018-06-10T07:17:04.725Z,36.32
2018-06-10T07:18:04.930Z,36.19
2018-06-10T07:19:04.961Z,36.15
2018-06-10T07:20:04.889Z,35.97
2018-06-10T07:21:04.949Z,35.99
2018-06-10T07:22:04.972Z,35.8
2018-06-10T07:23:04.742Z,35.74
2018-06-10T07:24:04.978Z,35.74
2018-06-10T07:25:04.760Z,35.78
2018-06-10T07:26:05.034Z,35.68
2018-06-10T07:27:05.048Z,35.62
2018-06-10T07:28:04.776Z,35.62
2018-06-10T07:29:04.558Z,35.65
2018-06-10T07:30:05.046Z,35.82
2018-06-10T07:31:04.839Z,36.07
2018-06-10T07:32:04.809Z,36.28
2018-06-10T07:33:05.107Z,36.56
2018-06-10T07:34:05.099Z,36.81
2018-06-10T07:35:05.137Z,37.24
2018-06-10T07:36:05.111Z,37.64
2018-06-10T07:37:04.960Z,38.16
2018-06-10T07:38:17.878Z,38.59
2018-06-10T07:39:05.179Z,38.95
2018-06-10T07:40:05.198Z,39.35
2018-06-10T07:41:04.927Z,39.67
2018-06-10T07:42:05.201Z,39.89
2018-06-10T07:43:04.960Z,40.25
2018-06-10T07:44:05.247Z,40.57
2018-06-10T07:45:05.237Z,40.94
2018-06-10T07:46:05.277Z,41.17
2018-06-10T07:47:05.262Z,41.51
2018-06-10T07:48:05.311Z,41.66
2018-06-10T07:49:05.300Z,41.9
2018-06-10T07:50:05.321Z,42.08
2018-06-10T07:51:05.371Z,42.18
2018-06-10T07:52:05.348Z,42.31
2018-06-10T07:53:05.113Z,42.42
2018-06-10T07:54:05.390Z,42.49
2018-06-10T07:55:04.913Z,42.62
2018-06-10T07:56:05.445Z,42.73
2018-06-10T07:57:04.929Z,42.8
2018-06-10T07:58:05.467Z,42.78
2018-06-10T07:59:05.463Z,42.65
2018-06-10T08:00:05.610Z,42.57
2018-06-10T08:01:05.255Z,42.21
2018-06-10T08:02:05.318Z,42.18
2018-06-10T08:03:05.547Z,42.08
2018-06-10T08:04:05.612Z,42.11
2018-06-10T08:05:05.575Z,42.08
2018-06-10T08:06:05.613Z,42.04
2018-06-10T08:07:05.359Z,41.99
2018-06-10T08:08:05.663Z,42.02
2018-06-10T08:09:05.683Z,41.99
2018-06-10T08:10:05.184Z,41.96
2018-06-10T08:11:05.438Z,41.93
2018-06-10T08:12:05.887Z,41.89
2018-06-10T08:13:05.491Z,41.93
2018-06-10T08:14:05.507Z,41.89
2018-06-10T08:15:05.779Z,41.93
2018-06-10T08:16:05.571Z,42.05
2018-06-10T08:17:05.804Z,41.98
2018-06-10T08:18:05.847Z,41.94
2018-06-10T08:19:05.839Z,41.9
2018-06-10T08:20:05.889Z,41.73
2018-06-10T08:21:05.638Z,41.7
2018-06-10T08:22:05.667Z,41.62
2018-06-10T08:23:05.907Z,41.51
2018-06-10T08:24:05.970Z,41.11
2018-06-10T08:25:05.721Z,41.04
2018-06-10T08:26:05.991Z,41.02
2018-06-10T08:27:05.994Z,40.98
2018-06-10T08:28:05.774Z,40.99
2018-06-10T08:29:05.769Z,40.94
2018-06-10T08:30:06.079Z,40.88
2018-06-10T08:31:06.052Z,40.88
2018-06-10T08:32:06.320Z,40.88
2018-06-10T08:33:06.095Z,40.96
2018-06-10T08:34:06.139Z,41.01
2018-06-10T08:35:05.877Z,40.99
2018-06-10T08:36:06.181Z,40.96
2018-06-10T08:37:05.904Z,40.94
2018-06-10T08:38:06.198Z,40.8
2018-06-10T08:39:06.200Z,40.6
2018-06-10T08:40:05.986Z,40.39
2018-06-10T08:41:05.978Z,40.26
2018-06-10T08:42:06.008Z,40.12
2018-06-10T08:43:06.304Z,39.94
2018-06-10T08:44:06.121Z,39.81
2018-06-10T08:45:06.304Z,39.69
2018-06-10T08:46:06.333Z,39.66
2018-06-10T08:47:06.329Z,39.59
2018-06-10T08:48:06.123Z,39.52
2018-06-10T08:49:06.118Z,39.55
2018-06-10T08:50:05.900Z,39.57
2018-06-10T08:51:06.148Z,39.59
2018-06-10T08:52:05.933Z,39.54
2018-06-10T08:53:06.176Z,39.45
2018-06-10T08:54:06.211Z,39.36
2018-06-10T08:55:05.958Z,39.28
2018-06-10T08:56:06.255Z,39.16
2018-06-10T08:57:06.410Z,39.03
2018-06-10T08:58:06.281Z,38.99
2018-06-10T08:59:06.274Z,38.88
2018-06-10T09:00:06.288Z,38.75
2018-06-10T09:01:06.074Z,38.63
2018-06-10T09:02:06.344Z,38.53
2018-06-10T09:03:06.371Z,38.42
2018-06-10T09:04:06.374Z,38.18
2018-06-10T09:05:06.390Z,37.96
2018-06-10T09:06:06.658Z,37.74
2018-06-10T09:07:06.139Z,37.56
2018-06-10T09:08:06.183Z,37.47
2018-06-10T09:09:06.418Z,37.22
2018-06-10T09:10:06.716Z,37.1
2018-06-10T09:11:06.441Z,36.87
2018-06-10T09:12:06.226Z,36.75
2018-06-10T09:13:06.757Z,36.73
2018-06-10T09:14:06.509Z,36.59
2018-06-10T09:15:06.495Z,36.5
2018-06-10T09:16:06.502Z,36.41
2018-06-10T09:17:06.543Z,36.49
2018-06-10T09:18:06.808Z,36.35
2018-06-10T09:19:06.824Z,36.12
2018-06-10T09:20:06.307Z,36.01
2018-06-10T09:21:06.582Z,35.81
2018-06-10T09:22:06.328Z,35.58
2018-06-10T09:23:06.610Z,35.56
2018-06-10T09:24:06.340Z,35.41
2018-06-10T09:25:06.377Z,35.21
2018-06-10T09:26:06.884Z,35.1
2018-06-10T09:27:06.396Z,34.96
2018-06-10T09:28:06.892Z,34.88
2018-06-10T09:29:06.668Z,34.81
2018-06-10T09:30:06.412Z,34.65
2018-06-10T09:31:06.956Z,34.58
2018-06-10T09:32:06.927Z,34.49
2018-06-10T09:33:06.709Z,34.44
2018-06-10T09:34:06.984Z,34.43
2018-06-10T09:35:06.482Z,34.4
2018-06-10T09:36:06.713Z,34.32
2018-06-10T09:37:06.747Z,34.37
2018-06-10T09:38:06.988Z,34.4
2018-06-10T09:39:07.032Z,34.42
2018-06-10T09:40:06.750Z,34.37
2018-06-10T09:41:06.789Z,34.37
2018-06-10T09:42:07.230Z,34.34
2018-06-10T09:43:07.069Z,34.4
2018-06-10T09:44:07.044Z,34.39
2018-06-10T09:45:06.802Z,34.43
2018-06-10T09:46:07.098Z,34.42
2018-06-10T09:47:07.102Z,34.35
2018-06-10T09:48:06.863Z,34.24
2018-06-10T09:49:07.093Z,34.22
2018-06-10T09:50:06.615Z,34.22
2018-06-10T09:51:07.115Z,34.21
2018-06-10T09:52:06.896Z,34.22
2018-06-10T09:53:06.879Z,34.19
2018-06-10T09:54:06.911Z,34.16
2018-06-10T09:55:07.026Z,34.19
2018-06-10T09:56:06.940Z,34.19
2018-06-10T09:57:06.912Z,34.13
2018-06-10T09:58:06.935Z,34.09
2018-06-10T09:59:07.209Z,34.16
2018-06-10T10:00:07.209Z,34.05
2018-06-10T10:01:06.991Z,34.05
2018-06-10T10:02:06.966Z,34.1
2018-06-10T10:03:07.256Z,34.03
2018-06-10T10:04:06.998Z,34.13
2018-06-10T10:05:07.250Z,34.17
2018-06-10T10:06:06.995Z,34.19
2018-06-10T10:07:06.995Z,34.22
2018-06-10T10:08:07.292Z,34.17
2018-06-10T10:09:07.288Z,34.19
2018-06-10T10:10:07.288Z,34.24
2018-06-10T10:11:07.330Z,34.24
2018-06-10T10:12:07.299Z,34.22
2018-06-10T10:13:06.821Z,34.25
2018-06-10T10:14:07.066Z,34.19
2018-06-10T10:15:07.357Z,34.25
2018-06-10T10:16:07.077Z,34.19
2018-06-10T10:17:07.342Z,34.34
2018-06-10T10:18:07.363Z,34.4
2018-06-10T10:19:07.395Z,34.49
2018-06-10T10:20:07.139Z,34.56
2018-06-10T10:21:07.400Z,34.65
2018-06-10T10:22:07.144Z,34.77
2018-06-10T10:23:07.168Z,34.72
2018-06-10T10:24:07.424Z,34.72
2018-06-10T10:25:07.441Z,34.77
2018-06-10T10:26:07.420Z,34.85
2018-06-10T10:27:07.464Z,34.85
2018-06-10T10:28:07.186Z,34.97
2018-06-10T10:29:07.476Z,35.21
2018-06-10T10:30:07.233Z,35.28
2018-06-10T10:31:07.243Z,35.41
2018-06-10T10:32:07.472Z,35.48
2018-06-10T10:33:07.492Z,35.5
2018-06-10T10:34:07.506Z,35.5
2018-06-10T10:35:07.533Z,35.53
2018-06-10T10:36:07.543Z,35.53
2018-06-10T10:37:07.285Z,35.55
2018-06-10T10:38:07.030Z,35.59
2018-06-10T10:39:07.286Z,35.65
2018-06-10T10:40:07.586Z,35.65
2018-06-10T10:41:07.307Z,35.6
2018-06-10T10:42:07.598Z,35.6
2018-06-10T10:43:07.792Z,35.5
2018-06-10T10:44:07.620Z,35.53
2018-06-10T10:45:07.593Z,35.45
2018-06-10T10:46:07.374Z,35.44
2018-06-10T10:47:07.616Z,35.37
2018-06-10T10:48:07.670Z,35.33
2018-06-10T10:49:07.638Z,35.4
2018-06-10T10:50:07.655Z,35.38
2018-06-10T10:51:07.685Z,35.31
2018-06-10T10:52:07.710Z,35.36
2018-06-10T10:53:07.168Z,35.36
2018-06-10T10:54:07.435Z,35.38
2018-06-10T10:55:07.686Z,35.34
2018-06-10T10:56:07.518Z,35.41
2018-06-10T10:57:07.734Z,35.45
2018-06-10T10:58:07.760Z,35.43
2018-06-10T10:59:07.721Z,35.43
2018-06-10T11:00:07.523Z,35.43
2018-06-10T11:01:07.740Z,35.43
2018-06-10T11:02:07.513Z,35.38
2018-06-10T11:03:07.757Z,35.25
2018-06-10T11:04:07.546Z,35.25
2018-06-10T11:05:07.550Z,35.16
2018-06-10T11:06:07.807Z,35.07
2018-06-10T11:07:07.809Z,34.99
2018-06-10T11:08:07.879Z,34.96
2018-06-10T11:09:07.592Z,34.84
2018-06-10T11:10:07.851Z,34.85
2018-06-10T11:11:07.873Z,34.8
2018-06-10T11:12:07.585Z,34.78
2018-06-10T11:13:07.638Z,34.59
2018-06-10T11:14:08.083Z,34.5
2018-06-10T11:15:07.619Z,34.46
2018-06-10T11:16:07.916Z,34.32
2018-06-10T11:17:07.903Z,34.21
2018-06-10T11:18:07.910Z,34.25
2018-06-10T11:19:07.647Z,34.24
2018-06-10T11:20:07.962Z,34.17
2018-06-10T11:21:07.945Z,34.13
2018-06-10T11:22:07.949Z,34.03
2018-06-10T11:23:07.688Z,33.91
2018-06-10T11:24:07.710Z,33.86
2018-06-10T11:25:07.989Z,33.72
2018-06-10T11:26:08.049Z,33.51
2018-06-10T11:27:08.319Z,33.35
2018-06-10T11:28:07.722Z,33.31
2018-06-10T11:29:08.019Z,33.15
2018-06-10T11:30:08.014Z,33.03
2018-06-10T11:31:08.034Z,32.99
2018-06-10T11:32:08.026Z,32.88
2018-06-10T11:33:07.797Z,32.82
2018-06-10T11:34:08.034Z,32.77
2018-06-10T11:35:08.069Z,32.67
2018-06-10T11:36:08.322Z,32.7
2018-06-10T11:37:08.054Z,32.66
2018-06-10T11:38:07.816Z,32.51
2018-06-10T11:39:08.107Z,32.52
2018-06-10T11:40:08.112Z,32.57
2018-06-10T11:41:07.853Z,32.4
2018-06-10T11:42:08.097Z,32.23
2018-06-10T11:43:07.864Z,32.32
2018-06-10T11:44:08.101Z,32.26
2018-06-10T11:45:07.878Z,32.14
2018-06-10T11:46:08.110Z,32.14
2018-06-10T11:47:07.897Z,32.21
2018-06-10T11:48:08.124Z,32.23
2018-06-10T11:49:08.164Z,32.26
2018-06-10T11:50:08.156Z,32.18
2018-06-10T11:51:07.917Z,32.23
2018-06-10T11:52:08.660Z,32.21
2018-06-10T11:53:08.185Z,32.19
2018-06-10T11:54:07.686Z,32.13
2018-06-10T11:55:08.186Z,32.04
2018-06-10T11:56:08.177Z,32.04
2018-06-10T11:57:08.223Z,31.96
2018-06-10T11:58:07.729Z,31.95
2018-06-10T11:59:07.998Z,31.89
2018-06-10T12:00:07.952Z,31.81
2018-06-10T12:01:08.009Z,31.76
2018-06-10T12:02:08.250Z,31.73
2018-06-10T12:03:08.258Z,31.72
2018-06-10T12:04:08.229Z,31.7
2018-06-10T12:05:08.280Z,31.48
2018-06-10T12:06:08.265Z,31.53
2018-06-10T12:07:08.256Z,31.53
2018-06-10T12:08:08.036Z,31.57
2018-06-10T12:09:08.041Z,31.48
2018-06-10T12:10:08.042Z,31.53
2018-06-10T12:11:08.282Z,31.61
2018-06-10T12:12:08.032Z,31.58
2018-06-10T12:13:08.364Z,31.54
2018-06-10T12:14:08.322Z,31.51
2018-06-10T12:15:08.348Z,31.43
2018-06-10T12:16:08.054Z,31.34
2018-06-10T12:17:08.086Z,31.16
2018-06-10T12:18:08.089Z,31.07
2018-06-10T12:19:08.716Z,30.89
2018-06-10T12:20:08.340Z,30.73
2018-06-10T12:21:08.112Z,30.64
2018-06-10T12:22:08.387Z,30.42
2018-06-10T12:23:08.381Z,30.29
2018-06-10T12:24:08.364Z,30.29
2018-06-10T12:25:08.118Z,30.11
2018-06-10T12:26:08.154Z,30.05
2018-06-10T12:27:08.152Z,29.92
2018-06-10T12:28:08.409Z,29.97
2018-06-10T12:29:08.399Z,29.97
2018-06-10T12:30:08.147Z,29.95
2018-06-10T12:31:08.176Z,29.97
2018-06-10T12:32:08.152Z,30.02
2018-06-10T12:33:08.175Z,30.02
2018-06-10T12:34:08.423Z,30.16
2018-06-10T12:35:08.232Z,30.1
2018-06-10T12:36:08.422Z,30.13
2018-06-10T12:37:08.225Z,29.98
2018-06-10T12:38:08.668Z,29.8
2018-06-10T12:39:08.228Z,29.73
2018-06-10T12:40:08.221Z,29.63
2018-06-10T12:41:08.202Z,29.49
2018-06-10T12:42:08.245Z,29.26
2018-06-10T12:43:08.495Z,29.15
2018-06-10T12:44:08.516Z,29
2018-06-10T12:45:08.470Z,28.92
2018-06-10T12:46:08.496Z,28.67
2018-06-10T12:47:08.223Z,28.52
2018-06-10T12:48:08.265Z,28.41
2018-06-10T12:49:08.319Z,28.36
2018-06-10T12:50:08.284Z,28.3
2018-06-10T12:51:08.496Z,28.09
2018-06-10T12:52:08.542Z,28.02
2018-06-10T12:53:08.507Z,27.88
2018-06-10T12:54:08.267Z,27.75
2018-06-10T12:55:08.266Z,27.6
2018-06-10T12:56:08.311Z,27.47
2018-06-10T12:57:08.527Z,27.47